sensor_id;sensor_type;location;lat;lon;timestamp;P1;durP1;ratioP1;P2;durP2;ratioP2
45316;SDS011;31053;55.870;37.592;2023-08-01T00:00:12;21.42;;;7.90;;
45316;SDS011;31053;55.870;37.592;2023-08-01T00:03:19;18.23;;;7.32;;
45316;SDS011;31053;55.870;37.592;2023-08-01T00:06:25;17.98;;;7.63;;
45316;SDS011;31053;55.870;37.592;2023-08-01T00:09:30;21.45;;;8.52;;
45316;SDS011;31053;55.870;37.592;2023-08-01T00:12:35;22.40;;;9.18;;
45316;SDS011;31053;55.870;37.592;2023-08-01T00:15:41;23.23;;;9.25;;
45316;SDS011;31053;55.870;37.592;2023-08-01T00:18:48;19.17;;;8.27;;
45316;SDS011;31053;55.870;37.592;2023-08-01T00:22:18;19.42;;;8.63;;
45316;SDS011;31053;55.870;37.592;2023-08-01T00:25:27;18.13;;;7.78;;
45316;SDS011;31053;55.870;37.592;2023-08-01T00:28:34;20.77;;;8.95;;
45316;SDS011;31053;55.870;37.592;2023-08-01T00:31:41;14.60;;;7.97;;
45316;SDS011;31053;55.870;37.592;2023-08-01T00:34:49;18.15;;;8.27;;
45316;SDS011;31053;55.870;37.592;2023-08-01T00:40:59;20.50;;;7.28;;
45316;SDS011;31053;55.870;37.592;2023-08-01T00:44:04;18.25;;;8.65;;
45316;SDS011;31053;55.870;37.592;2023-08-01T00:47:09;16.35;;;6.82;;
45316;SDS011;31053;55.870;37.592;2023-08-01T00:50:14;15.68;;;7.22;;
45316;SDS011;31053;55.870;37.592;2023-08-01T00:53:25;16.33;;;6.72;;
45316;SDS011;31053;55.870;37.592;2023-08-01T00:56:33;17.83;;;7.95;;
45316;SDS011;31053;55.870;37.592;2023-08-01T00:59:40;17.27;;;7.57;;
45316;SDS011;31053;55.870;37.592;2023-08-01T01:02:44;17.88;;;6.82;;
45316;SDS011;31053;55.870;37.592;2023-08-01T01:05:56;19.67;;;7.25;;
45316;SDS011;31053;55.870;37.592;2023-08-01T01:09:16;15.02;;;6.85;;
45316;SDS011;31053;55.870;37.592;2023-08-01T01:12:22;14.15;;;5.68;;
45316;SDS011;31053;55.870;37.592;2023-08-01T01:15:27;10.35;;;5.65;;
45316;SDS011;31053;55.870;37.592;2023-08-01T01:18:32;12.63;;;5.63;;
45316;SDS011;31053;55.870;37.592;2023-08-01T01:21:39;9.68;;;5.28;;
45316;SDS011;31053;55.870;37.592;2023-08-01T01:24:45;8.60;;;5.45;;
45316;SDS011;31053;55.870;37.592;2023-08-01T01:27:50;10.63;;;4.95;;
45316;SDS011;31053;55.870;37.592;2023-08-01T01:30:56;12.32;;;5.75;;
45316;SDS011;31053;55.870;37.592;2023-08-01T01:34:01;17.08;;;5.25;;
45316;SDS011;31053;55.870;37.592;2023-08-01T01:37:09;13.43;;;5.32;;
45316;SDS011;31053;55.870;37.592;2023-08-01T01:40:15;14.77;;;6.68;;
45316;SDS011;31053;55.870;37.592;2023-08-01T01:43:21;14.73;;;5.85;;
45316;SDS011;31053;55.870;37.592;2023-08-01T01:46:28;15.07;;;6.15;;
45316;SDS011;31053;55.870;37.592;2023-08-01T01:49:33;17.05;;;6.97;;
45316;SDS011;31053;55.870;37.592;2023-08-01T01:52:40;17.50;;;6.38;;
45316;SDS011;31053;55.870;37.592;2023-08-01T01:55:49;13.95;;;5.10;;
45316;SDS011;31053;55.870;37.592;2023-08-01T01:58:57;14.07;;;6.15;;
45316;SDS011;31053;55.870;37.592;2023-08-01T02:02:02;14.33;;;8.10;;
45316;SDS011;31053;55.870;37.592;2023-08-01T02:05:09;11.45;;;5.97;;
45316;SDS011;31053;55.870;37.592;2023-08-01T02:08:15;19.27;;;9.35;;
45316;SDS011;31053;55.870;37.592;2023-08-01T02:11:21;15.48;;;6.70;;
45316;SDS011;31053;55.870;37.592;2023-08-01T02:14:32;17.52;;;7.90;;
45316;SDS011;31053;55.870;37.592;2023-08-01T02:17:37;20.48;;;11.60;;
45316;SDS011;31053;55.870;37.592;2023-08-01T02:21:03;22.52;;;8.25;;
45316;SDS011;31053;55.870;37.592;2023-08-01T02:24:07;13.18;;;6.72;;
45316;SDS011;31053;55.870;37.592;2023-08-01T02:27:13;15.65;;;8.57;;
45316;SDS011;31053;55.870;37.592;2023-08-01T02:30:18;14.63;;;8.02;;
45316;SDS011;31053;55.870;37.592;2023-08-01T02:33:24;16.27;;;8.23;;
45316;SDS011;31053;55.870;37.592;2023-08-01T02:36:29;13.68;;;6.25;;
45316;SDS011;31053;55.870;37.592;2023-08-01T02:39:35;16.92;;;6.10;;
45316;SDS011;31053;55.870;37.592;2023-08-01T02:42:40;24.63;;;10.38;;
45316;SDS011;31053;55.870;37.592;2023-08-01T02:48:53;13.90;;;6.25;;
45316;SDS011;31053;55.870;37.592;2023-08-01T02:51:58;17.00;;;5.93;;
45316;SDS011;31053;55.870;37.592;2023-08-01T02:55:04;18.10;;;6.13;;
45316;SDS011;31053;55.870;37.592;2023-08-01T02:58:10;13.30;;;6.13;;
45316;SDS011;31053;55.870;37.592;2023-08-01T03:01:17;15.00;;;7.22;;
45316;SDS011;31053;55.870;37.592;2023-08-01T03:04:22;17.38;;;6.93;;
45316;SDS011;31053;55.870;37.592;2023-08-01T03:07:28;11.82;;;6.25;;
45316;SDS011;31053;55.870;37.592;2023-08-01T03:10:33;18.05;;;6.57;;
45316;SDS011;31053;55.870;37.592;2023-08-01T03:13:38;16.45;;;8.02;;
45316;SDS011;31053;55.870;37.592;2023-08-01T03:16:45;19.23;;;7.45;;
45316;SDS011;31053;55.870;37.592;2023-08-01T03:19:53;17.92;;;6.65;;
45316;SDS011;31053;55.870;37.592;2023-08-01T03:23:01;18.00;;;7.90;;
45316;SDS011;31053;55.870;37.592;2023-08-01T03:26:08;13.45;;;7.18;;
45316;SDS011;31053;55.870;37.592;2023-08-01T03:32:22;15.52;;;5.20;;
45316;SDS011;31053;55.870;37.592;2023-08-01T03:35:30;23.00;;;11.95;;
45316;SDS011;31053;55.870;37.592;2023-08-01T03:38:35;28.55;;;10.13;;
45316;SDS011;31053;55.870;37.592;2023-08-01T03:41:42;23.65;;;9.07;;
45316;SDS011;31053;55.870;37.592;2023-08-01T03:45:11;19.63;;;8.57;;
45316;SDS011;31053;55.870;37.592;2023-08-01T03:48:18;16.13;;;7.68;;
45316;SDS011;31053;55.870;37.592;2023-08-01T03:51:28;20.33;;;8.57;;
45316;SDS011;31053;55.870;37.592;2023-08-01T03:54:34;19.05;;;10.38;;
45316;SDS011;31053;55.870;37.592;2023-08-01T03:57:44;18.55;;;9.43;;
45316;SDS011;31053;55.870;37.592;2023-08-01T04:07:06;15.03;;;6.33;;
45316;SDS011;31053;55.870;37.592;2023-08-01T04:10:12;17.85;;;8.60;;
45316;SDS011;31053;55.870;37.592;2023-08-01T04:13:19;20.65;;;8.07;;
45316;SDS011;31053;55.870;37.592;2023-08-01T04:19:32;20.48;;;10.30;;
45316;SDS011;31053;55.870;37.592;2023-08-01T04:22:39;30.85;;;13.07;;
45316;SDS011;31053;55.870;37.592;2023-08-01T04:25:44;22.53;;;10.37;;
45316;SDS011;31053;55.870;37.592;2023-08-01T04:28:52;19.10;;;7.80;;
45316;SDS011;31053;55.870;37.592;2023-08-01T04:31:57;14.68;;;6.38;;
45316;SDS011;31053;55.870;37.592;2023-08-01T04:35:08;14.15;;;5.28;;
45316;SDS011;31053;55.870;37.592;2023-08-01T04:38:16;19.10;;;5.82;;
45316;SDS011;31053;55.870;37.592;2023-08-01T04:41:25;15.27;;;6.32;;
45316;SDS011;31053;55.870;37.592;2023-08-01T04:44:33;11.38;;;4.85;;
45316;SDS011;31053;55.870;37.592;2023-08-01T04:47:39;17.73;;;6.07;;
45316;SDS011;31053;55.870;37.592;2023-08-01T04:50:56;10.60;;;4.72;;
45316;SDS011;31053;55.870;37.592;2023-08-01T04:54:04;13.55;;;5.82;;
45316;SDS011;31053;55.870;37.592;2023-08-01T04:57:11;13.60;;;5.95;;
45316;SDS011;31053;55.870;37.592;2023-08-01T05:00:17;9.70;;;5.13;;
45316;SDS011;31053;55.870;37.592;2023-08-01T05:03:24;11.93;;;4.82;;
45316;SDS011;31053;55.870;37.592;2023-08-01T05:06:30;8.90;;;4.35;;
45316;SDS011;31053;55.870;37.592;2023-08-01T05:09:37;10.23;;;4.68;;
45316;SDS011;31053;55.870;37.592;2023-08-01T05:12:47;13.77;;;5.57;;
45316;SDS011;31053;55.870;37.592;2023-08-01T05:15:53;9.70;;;4.85;;
45316;SDS011;31053;55.870;37.592;2023-08-01T05:18:59;12.15;;;4.22;;
45316;SDS011;31053;55.870;37.592;2023-08-01T05:22:07;10.50;;;4.53;;
45316;SDS011;31053;55.870;37.592;2023-08-01T05:25:16;18.00;;;5.68;;
45316;SDS011;31053;55.870;37.592;2023-08-01T05:31:28;7.95;;;4.03;;
45316;SDS011;31053;55.870;37.592;2023-08-01T05:35:01;11.10;;;3.97;;
45316;SDS011;31053;55.870;37.592;2023-08-01T05:39:05;10.85;;;3.53;;
45316;SDS011;31053;55.870;37.592;2023-08-01T05:46:15;10.68;;;3.50;;
45316;SDS011;31053;55.870;37.592;2023-08-01T05:49:23;9.00;;;3.35;;
45316;SDS011;31053;55.870;37.592;2023-08-01T05:52:33;11.00;;;3.72;;
45316;SDS011;31053;55.870;37.592;2023-08-01T05:55:43;7.18;;;2.92;;
45316;SDS011;31053;55.870;37.592;2023-08-01T05:58:48;11.55;;;4.03;;
45316;SDS011;31053;55.870;37.592;2023-08-01T06:05:00;6.05;;;2.08;;
45316;SDS011;31053;55.870;37.592;2023-08-01T06:08:07;8.27;;;3.33;;
45316;SDS011;31053;55.870;37.592;2023-08-01T06:11:12;5.30;;;2.58;;
45316;SDS011;31053;55.870;37.592;2023-08-01T06:14:17;4.82;;;2.42;;
45316;SDS011;31053;55.870;37.592;2023-08-01T06:17:23;5.38;;;2.65;;
45316;SDS011;31053;55.870;37.592;2023-08-01T06:20:31;5.43;;;2.55;;
45316;SDS011;31053;55.870;37.592;2023-08-01T06:23:36;9.43;;;3.97;;
45316;SDS011;31053;55.870;37.592;2023-08-01T06:26:41;9.55;;;3.40;;
45316;SDS011;31053;55.870;37.592;2023-08-01T06:29:47;6.32;;;3.33;;
45316;SDS011;31053;55.870;37.592;2023-08-01T06:33:01;7.45;;;3.22;;
45316;SDS011;31053;55.870;37.592;2023-08-01T06:36:07;13.27;;;3.13;;
45316;SDS011;31053;55.870;37.592;2023-08-01T06:39:12;4.45;;;2.10;;
45316;SDS011;31053;55.870;37.592;2023-08-01T06:42:19;4.55;;;2.28;;
45316;SDS011;31053;55.870;37.592;2023-08-01T06:45:24;4.30;;;2.88;;
45316;SDS011;31053;55.870;37.592;2023-08-01T06:48:29;7.18;;;1.85;;
45316;SDS011;31053;55.870;37.592;2023-08-01T06:51:35;5.78;;;3.35;;
45316;SDS011;31053;55.870;37.592;2023-08-01T06:54:40;4.88;;;2.85;;
45316;SDS011;31053;55.870;37.592;2023-08-01T06:57:45;131.90;;;10.68;;
45316;SDS011;31053;55.870;37.592;2023-08-01T07:00:50;8.38;;;2.95;;
45316;SDS011;31053;55.870;37.592;2023-08-01T07:03:56;10.38;;;3.33;;
45316;SDS011;31053;55.870;37.592;2023-08-01T07:07:05;7.07;;;2.80;;
45316;SDS011;31053;55.870;37.592;2023-08-01T07:10:12;11.10;;;4.72;;
45316;SDS011;31053;55.870;37.592;2023-08-01T07:13:17;12.70;;;5.90;;
45316;SDS011;31053;55.870;37.592;2023-08-01T07:16:24;9.57;;;4.90;;
45316;SDS011;31053;55.870;37.592;2023-08-01T07:19:29;14.48;;;6.68;;
45316;SDS011;31053;55.870;37.592;2023-08-01T07:22:34;8.05;;;4.50;;
45316;SDS011;31053;55.870;37.592;2023-08-01T07:25:39;9.40;;;3.55;;
45316;SDS011;31053;55.870;37.592;2023-08-01T07:28:44;9.95;;;3.83;;
45316;SDS011;31053;55.870;37.592;2023-08-01T07:31:55;10.20;;;3.75;;
45316;SDS011;31053;55.870;37.592;2023-08-01T07:35:00;10.80;;;4.03;;
45316;SDS011;31053;55.870;37.592;2023-08-01T07:38:07;12.32;;;4.65;;
45316;SDS011;31053;55.870;37.592;2023-08-01T07:41:12;7.20;;;3.10;;
45316;SDS011;31053;55.870;37.592;2023-08-01T07:44:20;6.93;;;4.07;;
45316;SDS011;31053;55.870;37.592;2023-08-01T07:47:26;7.57;;;3.15;;
45316;SDS011;31053;55.870;37.592;2023-08-01T07:50:34;9.18;;;4.72;;
45316;SDS011;31053;55.870;37.592;2023-08-01T07:53:38;7.82;;;3.00;;
45316;SDS011;31053;55.870;37.592;2023-08-01T07:56:43;6.10;;;3.00;;
45316;SDS011;31053;55.870;37.592;2023-08-01T07:59:48;6.72;;;2.33;;
45316;SDS011;31053;55.870;37.592;2023-08-01T08:02:53;7.13;;;2.30;;
45316;SDS011;31053;55.870;37.592;2023-08-01T08:05:59;9.25;;;2.45;;
45316;SDS011;31053;55.870;37.592;2023-08-01T08:09:04;9.25;;;2.90;;
45316;SDS011;31053;55.870;37.592;2023-08-01T08:12:09;5.15;;;1.95;;
45316;SDS011;31053;55.870;37.592;2023-08-01T08:15:13;3.47;;;1.70;;
45316;SDS011;31053;55.870;37.592;2023-08-01T08:21:24;4.13;;;2.50;;
45316;SDS011;31053;55.870;37.592;2023-08-01T08:24:30;6.70;;;4.05;;
45316;SDS011;31053;55.870;37.592;2023-08-01T08:27:35;4.75;;;2.58;;
45316;SDS011;31053;55.870;37.592;2023-08-01T08:30:39;15.10;;;9.50;;
45316;SDS011;31053;55.870;37.592;2023-08-01T08:36:01;7.97;;;2.90;;
45316;SDS011;31053;55.870;37.592;2023-08-01T08:39:08;6.05;;;2.47;;
45316;SDS011;31053;55.870;37.592;2023-08-01T08:42:13;7.05;;;2.25;;
45316;SDS011;31053;55.870;37.592;2023-08-01T08:45:19;4.80;;;2.15;;
45316;SDS011;31053;55.870;37.592;2023-08-01T08:48:27;6.55;;;2.15;;
45316;SDS011;31053;55.870;37.592;2023-08-01T08:51:32;5.70;;;1.58;;
45316;SDS011;31053;55.870;37.592;2023-08-01T08:54:37;3.55;;;1.63;;
45316;SDS011;31053;55.870;37.592;2023-08-01T08:57:43;2.53;;;1.40;;
45316;SDS011;31053;55.870;37.592;2023-08-01T09:00:52;8.75;;;1.90;;
45316;SDS011;31053;55.870;37.592;2023-08-01T09:03:57;7.28;;;1.23;;
45316;SDS011;31053;55.870;37.592;2023-08-01T09:07:09;4.40;;;2.17;;
45316;SDS011;31053;55.870;37.592;2023-08-01T09:12:56;2.92;;;2.20;;
45316;SDS011;31053;55.870;37.592;2023-08-01T09:16:33;3.60;;;1.55;;
45316;SDS011;31053;55.870;37.592;2023-08-01T09:20:57;2.13;;;1.67;;
45316;SDS011;31053;55.870;37.592;2023-08-01T09:24:11;3.85;;;1.95;;
45316;SDS011;31053;55.870;37.592;2023-08-01T09:27:32;3.15;;;1.80;;
45316;SDS011;31053;55.870;37.592;2023-08-01T09:31:00;5.97;;;2.00;;
45316;SDS011;31053;55.870;37.592;2023-08-01T09:34:21;9.73;;;2.47;;
45316;SDS011;31053;55.870;37.592;2023-08-01T09:37:37;2.70;;;1.70;;
45316;SDS011;31053;55.870;37.592;2023-08-01T09:40:45;7.88;;;1.73;;
45316;SDS011;31053;55.870;37.592;2023-08-01T09:43:50;3.95;;;1.65;;
45316;SDS011;31053;55.870;37.592;2023-08-01T09:47:03;4.30;;;1.60;;
45316;SDS011;31053;55.870;37.592;2023-08-01T09:50:21;2.75;;;1.42;;
45316;SDS011;31053;55.870;37.592;2023-08-01T09:53:27;7.22;;;2.80;;
45316;SDS011;31053;55.870;37.592;2023-08-01T09:56:32;5.57;;;2.60;;
45316;SDS011;31053;55.870;37.592;2023-08-01T09:59:37;6.05;;;1.92;;
45316;SDS011;31053;55.870;37.592;2023-08-01T10:02:42;3.20;;;1.77;;
45316;SDS011;31053;55.870;37.592;2023-08-01T10:05:47;7.47;;;2.60;;
45316;SDS011;31053;55.870;37.592;2023-08-01T10:08:55;2.20;;;1.40;;
45316;SDS011;31053;55.870;37.592;2023-08-01T10:12:33;4.85;;;1.30;;
45316;SDS011;31053;55.870;37.592;2023-08-01T10:15:47;6.43;;;1.60;;
45316;SDS011;31053;55.870;37.592;2023-08-01T10:18:52;5.32;;;1.30;;
45316;SDS011;31053;55.870;37.592;2023-08-01T10:22:05;2.78;;;1.90;;
45316;SDS011;31053;55.870;37.592;2023-08-01T10:25:13;5.07;;;1.23;;
45316;SDS011;31053;55.870;37.592;2023-08-01T10:28:38;5.53;;;2.38;;
45316;SDS011;31053;55.870;37.592;2023-08-01T10:31:52;3.67;;;1.83;;
45316;SDS011;31053;55.870;37.592;2023-08-01T10:34:59;3.63;;;1.55;;
45316;SDS011;31053;55.870;37.592;2023-08-01T10:38:20;7.00;;;2.42;;
45316;SDS011;31053;55.870;37.592;2023-08-01T10:44:44;3.22;;;1.98;;
45316;SDS011;31053;55.870;37.592;2023-08-01T10:47:50;3.92;;;2.03;;
45316;SDS011;31053;55.870;37.592;2023-08-01T10:57:18;5.75;;;2.17;;
45316;SDS011;31053;55.870;37.592;2023-08-01T11:00:23;6.30;;;1.83;;
45316;SDS011;31053;55.870;37.592;2023-08-01T11:03:37;10.40;;;2.92;;
45316;SDS011;31053;55.870;37.592;2023-08-01T11:06:57;6.68;;;2.30;;
45316;SDS011;31053;55.870;37.592;2023-08-01T11:10:08;6.55;;;2.83;;
45316;SDS011;31053;55.870;37.592;2023-08-01T11:13:15;4.65;;;2.58;;
45316;SDS011;31053;55.870;37.592;2023-08-01T11:16:23;3.03;;;1.98;;
45316;SDS011;31053;55.870;37.592;2023-08-01T11:19:28;8.40;;;2.88;;
45316;SDS011;31053;55.870;37.592;2023-08-01T11:22:52;5.47;;;2.17;;
45316;SDS011;31053;55.870;37.592;2023-08-01T11:25:59;10.45;;;2.60;;
45316;SDS011;31053;55.870;37.592;2023-08-01T11:29:04;7.65;;;2.95;;
45316;SDS011;31053;55.870;37.592;2023-08-01T11:32:08;5.82;;;3.20;;
45316;SDS011;31053;55.870;37.592;2023-08-01T11:35:17;9.10;;;2.45;;
45316;SDS011;31053;55.870;37.592;2023-08-01T11:38:22;8.98;;;2.75;;
45316;SDS011;31053;55.870;37.592;2023-08-01T11:41:30;8.38;;;4.00;;
45316;SDS011;31053;55.870;37.592;2023-08-01T11:44:35;16.02;;;5.38;;
45316;SDS011;31053;55.870;37.592;2023-08-01T11:47:46;14.77;;;5.80;;
45316;SDS011;31053;55.870;37.592;2023-08-01T11:51:01;7.05;;;3.45;;
45316;SDS011;31053;55.870;37.592;2023-08-01T11:54:06;11.95;;;4.13;;
45316;SDS011;31053;55.870;37.592;2023-08-01T11:57:13;12.25;;;4.65;;
45316;SDS011;31053;55.870;37.592;2023-08-01T12:00:26;6.72;;;2.72;;
45316;SDS011;31053;55.870;37.592;2023-08-01T12:03:41;11.38;;;4.15;;
45316;SDS011;31053;55.870;37.592;2023-08-01T12:07:00;6.63;;;2.47;;
45316;SDS011;31053;55.870;37.592;2023-08-01T12:13:22;15.00;;;3.85;;
45316;SDS011;31053;55.870;37.592;2023-08-01T12:16:38;14.90;;;6.93;;
45316;SDS011;31053;55.870;37.592;2023-08-01T12:19:47;16.52;;;5.55;;
45316;SDS011;31053;55.870;37.592;2023-08-01T12:22:53;13.05;;;3.70;;
45316;SDS011;31053;55.870;37.592;2023-08-01T12:26:05;14.80;;;5.35;;
45316;SDS011;31053;55.870;37.592;2023-08-01T12:29:15;11.50;;;4.70;;
45316;SDS011;31053;55.870;37.592;2023-08-01T12:32:29;20.73;;;3.67;;
45316;SDS011;31053;55.870;37.592;2023-08-01T12:35:42;5.25;;;2.38;;
45316;SDS011;31053;55.870;37.592;2023-08-01T12:43:40;6.65;;;1.77;;
45316;SDS011;31053;55.870;37.592;2023-08-01T12:48:19;6.93;;;2.15;;
45316;SDS011;31053;55.870;37.592;2023-08-01T12:52:25;4.80;;;2.65;;
45316;SDS011;31053;55.870;37.592;2023-08-01T12:56:09;6.30;;;1.75;;
45316;SDS011;31053;55.870;37.592;2023-08-01T13:01:03;3.65;;;1.48;;
45316;SDS011;31053;55.870;37.592;2023-08-01T13:04:35;10.05;;;2.05;;
45316;SDS011;31053;55.870;37.592;2023-08-01T13:08:15;9.65;;;5.57;;
45316;SDS011;31053;55.870;37.592;2023-08-01T13:14:00;5.55;;;2.50;;
45316;SDS011;31053;55.870;37.592;2023-08-01T13:17:19;9.50;;;2.67;;
45316;SDS011;31053;55.870;37.592;2023-08-01T13:20:29;12.38;;;4.90;;
45316;SDS011;31053;55.870;37.592;2023-08-01T13:23:40;8.60;;;4.55;;
45316;SDS011;31053;55.870;37.592;2023-08-01T13:27:08;11.50;;;4.13;;
45316;SDS011;31053;55.870;37.592;2023-08-01T13:30:26;18.75;;;6.03;;
45316;SDS011;31053;55.870;37.592;2023-08-01T13:33:52;8.10;;;3.53;;
45316;SDS011;31053;55.870;37.592;2023-08-01T13:37:04;7.65;;;4.28;;
45316;SDS011;31053;55.870;37.592;2023-08-01T13:40:47;7.75;;;3.15;;
45316;SDS011;31053;55.870;37.592;2023-08-01T13:44:09;16.05;;;3.08;;
45316;SDS011;31053;55.870;37.592;2023-08-01T13:47:15;8.15;;;2.47;;
45316;SDS011;31053;55.870;37.592;2023-08-01T13:50:46;12.50;;;3.13;;
45316;SDS011;31053;55.870;37.592;2023-08-01T13:53:54;17.95;;;9.52;;
45316;SDS011;31053;55.870;37.592;2023-08-01T13:57:00;18.13;;;4.93;;
45316;SDS011;31053;55.870;37.592;2023-08-01T14:00:05;7.20;;;3.97;;
45316;SDS011;31053;55.870;37.592;2023-08-01T14:03:16;17.50;;;4.25;;
45316;SDS011;31053;55.870;37.592;2023-08-01T14:06:21;10.70;;;4.37;;
45316;SDS011;31053;55.870;37.592;2023-08-01T14:09:26;9.25;;;3.42;;
45316;SDS011;31053;55.870;37.592;2023-08-01T14:12:31;13.50;;;3.97;;
45316;SDS011;31053;55.870;37.592;2023-08-01T14:15:36;9.25;;;3.00;;
45316;SDS011;31053;55.870;37.592;2023-08-01T14:18:41;6.60;;;3.40;;
45316;SDS011;31053;55.870;37.592;2023-08-01T14:21:54;9.45;;;3.75;;
45316;SDS011;31053;55.870;37.592;2023-08-01T14:24:59;7.97;;;3.10;;
45316;SDS011;31053;55.870;37.592;2023-08-01T14:28:04;9.95;;;6.55;;
45316;SDS011;31053;55.870;37.592;2023-08-01T14:31:10;14.25;;;10.30;;
45316;SDS011;31053;55.870;37.592;2023-08-01T14:34:15;12.23;;;8.18;;
45316;SDS011;31053;55.870;37.592;2023-08-01T14:37:20;13.15;;;4.43;;
45316;SDS011;31053;55.870;37.592;2023-08-01T14:40:29;12.73;;;4.53;;
45316;SDS011;31053;55.870;37.592;2023-08-01T14:43:35;12.68;;;3.15;;
45316;SDS011;31053;55.870;37.592;2023-08-01T14:46:42;10.75;;;2.97;;
45316;SDS011;31053;55.870;37.592;2023-08-01T14:49:51;10.95;;;2.50;;
45316;SDS011;31053;55.870;37.592;2023-08-01T14:52:55;12.13;;;4.07;;
45316;SDS011;31053;55.870;37.592;2023-08-01T14:56:00;8.50;;;3.90;;
45316;SDS011;31053;55.870;37.592;2023-08-01T14:59:08;19.88;;;6.90;;
45316;SDS011;31053;55.870;37.592;2023-08-01T15:02:14;25.87;;;4.23;;
45316;SDS011;31053;55.870;37.592;2023-08-01T15:05:19;14.88;;;6.38;;
45316;SDS011;31053;55.870;37.592;2023-08-01T15:08:25;10.93;;;5.78;;
45316;SDS011;31053;55.870;37.592;2023-08-01T15:11:30;13.20;;;4.63;;
45316;SDS011;31053;55.870;37.592;2023-08-01T15:14:39;11.02;;;3.47;;
45316;SDS011;31053;55.870;37.592;2023-08-01T15:17:44;11.57;;;5.88;;
45316;SDS011;31053;55.870;37.592;2023-08-01T15:20:48;13.23;;;9.65;;
45316;SDS011;31053;55.870;37.592;2023-08-01T15:23:54;8.23;;;3.65;;
45316;SDS011;31053;55.870;37.592;2023-08-01T15:27:00;8.10;;;3.75;;
45316;SDS011;31053;55.870;37.592;2023-08-01T15:30:07;12.77;;;3.30;;
45316;SDS011;31053;55.870;37.592;2023-08-01T15:33:14;15.48;;;6.60;;
45316;SDS011;31053;55.870;37.592;2023-08-01T15:36:25;13.88;;;3.63;;
45316;SDS011;31053;55.870;37.592;2023-08-01T15:39:33;11.90;;;4.35;;
45316;SDS011;31053;55.870;37.592;2023-08-01T15:42:38;22.63;;;9.52;;
45316;SDS011;31053;55.870;37.592;2023-08-01T15:45:46;14.57;;;6.65;;
45316;SDS011;31053;55.870;37.592;2023-08-01T15:48:51;18.65;;;9.10;;
45316;SDS011;31053;55.870;37.592;2023-08-01T15:51:56;16.58;;;7.90;;
45316;SDS011;31053;55.870;37.592;2023-08-01T15:55:01;11.38;;;4.55;;
45316;SDS011;31053;55.870;37.592;2023-08-01T15:58:07;11.98;;;6.40;;
45316;SDS011;31053;55.870;37.592;2023-08-01T16:01:14;12.45;;;7.28;;
45316;SDS011;31053;55.870;37.592;2023-08-01T16:04:18;26.77;;;16.25;;
45316;SDS011;31053;55.870;37.592;2023-08-01T16:07:23;14.43;;;6.53;;
45316;SDS011;31053;55.870;37.592;2023-08-01T16:10:29;12.98;;;6.55;;
45316;SDS011;31053;55.870;37.592;2023-08-01T16:13:35;23.98;;;8.13;;
45316;SDS011;31053;55.870;37.592;2023-08-01T16:16:40;38.42;;;26.80;;
45316;SDS011;31053;55.870;37.592;2023-08-01T16:19:45;46.95;;;29.90;;
45316;SDS011;31053;55.870;37.592;2023-08-01T16:22:51;25.27;;;12.10;;
45316;SDS011;31053;55.870;37.592;2023-08-01T16:25:57;15.40;;;7.30;;
45316;SDS011;31053;55.870;37.592;2023-08-01T16:29:01;32.92;;;22.73;;
45316;SDS011;31053;55.870;37.592;2023-08-01T16:32:08;10.18;;;5.78;;
45316;SDS011;31053;55.870;37.592;2023-08-01T16:35:22;12.52;;;4.80;;
45316;SDS011;31053;55.870;37.592;2023-08-01T16:38:27;10.85;;;7.20;;
45316;SDS011;31053;55.870;37.592;2023-08-01T16:41:32;7.20;;;4.57;;
45316;SDS011;31053;55.870;37.592;2023-08-01T16:44:38;12.95;;;9.02;;
45316;SDS011;31053;55.870;37.592;2023-08-01T16:47:43;18.95;;;5.00;;
45316;SDS011;31053;55.870;37.592;2023-08-01T16:50:49;4.93;;;2.85;;
45316;SDS011;31053;55.870;37.592;2023-08-01T16:53:53;8.52;;;3.60;;
45316;SDS011;31053;55.870;37.592;2023-08-01T16:57:00;8.68;;;4.82;;
45316;SDS011;31053;55.870;37.592;2023-08-01T17:00:07;19.15;;;9.80;;
45316;SDS011;31053;55.870;37.592;2023-08-01T17:03:13;13.20;;;7.97;;
45316;SDS011;31053;55.870;37.592;2023-08-01T17:06:19;22.60;;;11.40;;
45316;SDS011;31053;55.870;37.592;2023-08-01T17:09:28;15.52;;;8.50;;
45316;SDS011;31053;55.870;37.592;2023-08-01T17:12:34;11.75;;;4.25;;
45316;SDS011;31053;55.870;37.592;2023-08-01T17:15:40;12.27;;;6.53;;
45316;SDS011;31053;55.870;37.592;2023-08-01T17:18:45;7.13;;;3.40;;
45316;SDS011;31053;55.870;37.592;2023-08-01T17:21:53;11.32;;;3.60;;
45316;SDS011;31053;55.870;37.592;2023-08-01T17:24:58;6.63;;;3.70;;
45316;SDS011;31053;55.870;37.592;2023-08-01T17:28:03;11.88;;;5.85;;
45316;SDS011;31053;55.870;37.592;2023-08-01T17:31:08;23.02;;;13.63;;
45316;SDS011;31053;55.870;37.592;2023-08-01T17:34:18;5.57;;;3.95;;
45316;SDS011;31053;55.870;37.592;2023-08-01T17:37:24;11.57;;;7.43;;
45316;SDS011;31053;55.870;37.592;2023-08-01T17:40:29;12.77;;;7.07;;
45316;SDS011;31053;55.870;37.592;2023-08-01T17:43:34;22.40;;;14.20;;
45316;SDS011;31053;55.870;37.592;2023-08-01T17:46:39;15.57;;;10.07;;
45316;SDS011;31053;55.870;37.592;2023-08-01T17:49:44;17.38;;;6.80;;
45316;SDS011;31053;55.870;37.592;2023-08-01T17:52:49;14.23;;;6.97;;
45316;SDS011;31053;55.870;37.592;2023-08-01T17:55:53;11.25;;;5.10;;
45316;SDS011;31053;55.870;37.592;2023-08-01T17:58:59;7.45;;;5.30;;
45316;SDS011;31053;55.870;37.592;2023-08-01T18:02:07;10.13;;;4.70;;
45316;SDS011;31053;55.870;37.592;2023-08-01T18:05:12;9.48;;;4.32;;
45316;SDS011;31053;55.870;37.592;2023-08-01T18:08:19;12.00;;;4.45;;
45316;SDS011;31053;55.870;37.592;2023-08-01T18:11:28;10.15;;;4.57;;
45316;SDS011;31053;55.870;37.592;2023-08-01T18:14:34;11.27;;;4.33;;
45316;SDS011;31053;55.870;37.592;2023-08-01T18:17:40;13.45;;;3.28;;
45316;SDS011;31053;55.870;37.592;2023-08-01T18:20:45;15.65;;;5.03;;
45316;SDS011;31053;55.870;37.592;2023-08-01T18:23:59;13.95;;;4.78;;
45316;SDS011;31053;55.870;37.592;2023-08-01T18:27:07;14.82;;;7.75;;
45316;SDS011;31053;55.870;37.592;2023-08-01T18:30:12;14.27;;;6.60;;
45316;SDS011;31053;55.870;37.592;2023-08-01T18:33:18;12.00;;;4.88;;
45316;SDS011;31053;55.870;37.592;2023-08-01T18:36:23;14.70;;;4.85;;
45316;SDS011;31053;55.870;37.592;2023-08-01T18:39:30;13.45;;;6.22;;
45316;SDS011;31053;55.870;37.592;2023-08-01T18:42:36;9.88;;;3.65;;
45316;SDS011;31053;55.870;37.592;2023-08-01T18:45:43;9.93;;;4.05;;
45316;SDS011;31053;55.870;37.592;2023-08-01T18:48:57;13.23;;;6.50;;
45316;SDS011;31053;55.870;37.592;2023-08-01T18:52:03;12.18;;;4.82;;
45316;SDS011;31053;55.870;37.592;2023-08-01T18:55:07;12.73;;;3.80;;
45316;SDS011;31053;55.870;37.592;2023-08-01T18:58:12;9.52;;;4.95;;
45316;SDS011;31053;55.870;37.592;2023-08-01T19:01:21;10.57;;;3.75;;
45316;SDS011;31053;55.870;37.592;2023-08-01T19:04:28;27.38;;;4.20;;
45316;SDS011;31053;55.870;37.592;2023-08-01T19:07:36;7.72;;;3.83;;
45316;SDS011;31053;55.870;37.592;2023-08-01T19:10:41;7.28;;;4.03;;
45316;SDS011;31053;55.870;37.592;2023-08-01T19:13:46;8.43;;;4.45;;
45316;SDS011;31053;55.870;37.592;2023-08-01T19:16:51;6.97;;;4.05;;
45316;SDS011;31053;55.870;37.592;2023-08-01T19:19:56;8.77;;;3.80;;
45316;SDS011;31053;55.870;37.592;2023-08-01T19:27:38;12.15;;;4.70;;
45316;SDS011;31053;55.870;37.592;2023-08-01T19:31:39;8.85;;;3.60;;
45316;SDS011;31053;55.870;37.592;2023-08-01T19:34:57;13.73;;;4.45;;